Latest Weather Observations for Applethorpe

IDQ60801

Issued at 10:02 am EST Sunday 2 August 2015 (issued every 30 minutes, with the page automatically refreshed every 10 minutes)

About weather observations | Map of weather stations | Latest weather observations for QLD | Other Formats
Station Details ID: 041175 Name: APPLETHORPE Lat: -28.62 Lon: 151.95 Height: 871.6 m
Data from the previous 72 hours. | See also: Recent months at Applethorpe
Date/Time
EST
Temp
°C
App
Temp
°C
Dew
Point
Rel
Hum
%
Delta-T
°C
Wind Press
QNH
hPa
Press
MSL
hPa
Rain
since 9 am
mm
Dir
 
Spd
km/h
Gust
km/h
Spd
kts
Gust
kts
02/10:00am 17.1 14.4 5.6 46 5.8 WNW 9 17 5 9 1024.1 1023.9 0.0
02/09:30am 16.6 14.0 6.2 50 5.3 WNW 9 19 5 10 1024.4 1024.3 0.0
02/09:00am 15.3 13.3 6.4 55 4.5 NW 6 19 3 10 1024.4 1024.3 0.0
02/08:30am 12.5 11.2 6.0 64 3.2 NW 2 7 1 4 1024.1 1023.9 0.0
02/08:00am 8.1 6.7 5.6 84 1.2 SSW 2 6 1 3 1024.1 1023.9 0.0
02/07:30am 4.3 2.9 3.4 94 0.4 CALM 0 0 0 0 1024.0 1023.8 0.0
02/07:00am 1.8 0.0 1.3 96 0.2 CALM 0 0 0 0 1023.8 1023.6 0.0
02/06:30am 1.8 -0.1 0.8 93 0.4 CALM 0 0 0 0 1023.6 1023.4 0.0
02/06:00am 1.8 0.0 1.0 94 0.3 CALM 0 0 0 0 1023.5 1023.3 0.0
02/05:30am 2.2 0.1 1.5 95 0.3 WSW 2 4 1 2 1023.5 1023.3 0.0
02/05:00am 2.5 0.4 1.8 95 0.3 SW 2 4 1 2 1023.4 1023.1 0.0
02/04:30am 2.2 0.4 1.5 95 0.3 CALM 0 0 0 0 1023.1 1022.9 0.0
02/04:00am 2.6 0.8 1.4 92 0.5 CALM 0 0 0 0 1022.9 1022.7 0.0
02/03:30am 2.4 0.7 1.7 95 0.3 CALM 0 0 0 0 1023.0 1022.8 0.0
02/03:00am 2.5 0.0 1.3 92 0.5 ENE 4 4 2 2 1023.2 1023.0 0.0
02/02:30am 2.8 1.1 1.6 92 0.5 CALM 0 0 0 0 1023.6 1023.4 0.0
02/02:00am 2.9 0.8 1.7 92 0.5 ENE 2 2 1 1 1023.6 1023.4 0.0
02/01:30am 3.0 1.2 1.5 90 0.6 CALM 0 0 0 0 1023.8 1023.6 0.0
02/01:00am 2.9 0.8 1.7 92 0.5 E 2 4 1 2 1024.1 1023.9 0.0
02/12:30am 3.4 1.3 1.7 89 0.7 ENE 2 4 1 2 1024.4 1024.3 0.0
02/12:00am 3.4 1.7 2.0 90 0.6 CALM 0 0 0 0 1024.6 1024.4 0.0
 
Date/Time
EST
Temp
°C
App
Temp
°C
Dew
Point
Rel
Hum
%
Delta-T
°C
Wind Press
QNH
hPa
Press
MSL
hPa
Rain
since 9 am
mm
Dir
 
Spd
km/h
Gust
km/h
Spd
kts
Gust
kts
01/11:30pm 4.4 2.4 2.3 86 0.9 ENE 2 4 1 2 1024.7 1024.5 0.0
01/11:00pm 3.7 1.7 2.3 91 0.6 ENE 2 4 1 2 1024.3 1024.1 0.0
01/10:30pm 4.2 2.5 2.1 86 0.9 CALM 0 0 0 0 1024.2 1024.0 0.0
01/10:00pm 4.3 2.7 2.7 89 0.7 CALM 0 0 0 0 1024.3 1024.1 0.0
01/09:30pm 4.5 2.1 2.1 84 1.0 ENE 4 4 2 2 1024.7 1024.5 0.0
01/09:00pm 5.0 3.0 2.4 83 1.1 ENE 2 4 1 2 1024.6 1024.4 0.0
01/08:30pm 5.6 3.7 2.6 81 1.3 ENE 2 4 1 2 1024.6 1024.4 0.0
01/08:00pm 5.9 4.0 2.7 80 1.4 NNE 2 2 1 1 1024.3 1024.1 0.0
01/07:30pm 7.1 4.8 2.5 72 2.0 N 4 6 2 3 1023.9 1023.7 0.0
01/07:00pm 8.0 6.1 3.1 71 2.2 NE 2 6 1 3 1023.5 1023.3 0.0
01/06:30pm 9.5 7.8 1.7 58 3.4 CALM 0 0 0 0 1023.0 1022.8 0.0
01/06:00pm 11.2 9.5 2.0 53 4.1 CALM 0 0 0 0 1022.9 1022.7 0.0
01/05:30pm 14.5 11.5 0.9 39 6.1 W 6 9 3 5 1022.8 1022.6 0.0
01/05:00pm 16.6 13.7 -0.8 30 7.7 W 4 9 2 5 1022.5 1022.3 0.0
01/04:30pm 18.4 14.6 -3.5 22 9.3 W 7 13 4 7 1022.4 1022.1 0.0
01/04:00pm 19.2 15.3 -4.8 19 10.0 WNW 7 13 4 7 1022.4 1022.1 0.0
01/03:30pm 19.8 16.3 -3.0 21 9.9 WNW 6 15 3 8 1022.4 1022.1 0.0
01/03:00pm 20.1 15.8 -4.5 18 10.4 WNW 9 15 5 8 1022.3 1022.0 0.0
01/02:30pm 19.9 16.0 -4.5 19 10.3 NW 7 17 4 9 1022.4 1022.1 0.0
01/02:00pm 20.3 16.4 -4.9 18 10.6 NNW 7 13 4 7 1022.4 1022.1 0.0
01/01:30pm 20.0 16.0 -5.7 17 10.6 NNW 7 13 4 7 1022.4 1022.1 0.0
01/01:00pm 20.2 16.9 -4.3 19 10.4 N 4 15 2 8 1022.8 1022.6 0.0
01/12:30pm 19.4 15.1 -4.8 19 10.1 N 9 17 5 9 1023.4 1023.1 0.0
01/12:00pm 19.6 15.8 -3.9 20 10.0 NW 7 13 4 7 1023.6 1023.4 0.0
01/11:30am 19.0 14.7 -4.4 20 9.8 N 9 17 5 9 1023.8 1023.6 0.0
01/11:00am 18.3 14.3 -5.6 19 9.7 NNW 7 15 4 8 1024.3 1024.1 0.0
01/10:30am 17.7 13.6 -9.3 15 10.1 NNW 6 11 3 6 1024.7 1024.5 0.0
01/10:00am 16.8 12.6 -7.3 18 9.3 NNW 7 11 4 6 1024.9 1024.7 0.0
01/09:30am 14.6 13.0 2.6 44 5.6 CALM 0 2 0 1 1024.9 1025.2 0.0
01/09:00am 11.7 10.4 4.0 59 3.6 CALM 0 2 0 1 1024.9 1025.2 0.0
01/08:30am 8.1 6.3 3.7 74 2.0 NNE 2 4 1 2 1024.8 1025.1 0.0
01/08:00am 4.7 3.2 3.1 89 0.7 CALM 0 0 0 0 1024.7 1025.0 0.0
01/07:30am 1.8 -0.1 0.8 93 0.4 CALM 0 0 0 0 1024.6 1024.8 0.0
01/07:00am 0.1 - - - - CALM 0 0 0 0 1024.2 1024.5 0.0
01/06:30am -0.1 - - - - CALM 0 0 0 0 1023.8 1024.1 0.0
01/06:00am -0.1 - - - - CALM 0 0 0 0 1023.6 1023.8 0.0
01/05:30am -0.1 - - - - NE 2 2 1 1 1023.1 1023.4 0.0
01/05:00am 0.1 - - - - CALM 0 2 0 1 1023.2 1023.5 0.0
01/04:30am 0.1 - - - - CALM 0 0 0 0 1023.2 1023.5 0.0
01/04:00am 0.4 - - - - CALM 0 2 0 1 1023.4 1023.6 0.0
01/03:30am 0.4 - - - - CALM 0 0 0 0 1023.6 1023.8 0.0
01/03:00am 1.1 -0.8 0.8 98 0.1 CALM 0 4 0 2 1023.8 1024.1 0.0
01/02:30am 0.9 -1.0 0.6 98 0.1 CALM 0 2 0 1 1024.0 1024.3 0.0
01/02:00am 1.0 -1.3 0.5 96 0.2 ENE 2 4 1 2 1024.1 1024.4 0.0
01/01:30am 1.5 -0.4 0.7 94 0.3 CALM 0 0 0 0 1024.3 1024.6 0.0
01/01:00am 1.8 0.0 1.0 94 0.3 CALM 0 0 0 0 1024.6 1024.8 0.0
01/12:30am 2.0 0.2 1.3 95 0.3 CALM 0 0 0 0 1024.6 1024.8 0.0
01/12:00am 2.3 0.1 1.3 93 0.4 NNE 2 4 1 2 1024.4 1024.7 0.0
 
Date/Time
EST
Temp
°C
App
Temp
°C
Dew
Point
Rel
Hum
%
Delta-T
°C
Wind Press
QNH
hPa
Press
MSL
hPa
Rain
since 9 am
mm
Dir
 
Spd
km/h
Gust
km/h
Spd
kts
Gust
kts
31/11:30pm 2.4 0.6 1.2 92 0.5 CALM 0 0 0 0 1024.4 1024.7 0.0
31/11:00pm 2.6 0.9 1.9 95 0.3 CALM 0 2 0 1 1024.4 1024.7 0.0
31/10:30pm 3.6 1.5 1.7 87 0.8 SW 2 6 1 3 1024.4 1024.7 0.0
31/10:00pm 3.6 1.9 1.9 89 0.7 CALM 0 0 0 0 1024.3 1024.6 0.0
31/09:30pm 3.8 1.4 2.1 89 0.7 SW 4 6 2 3 1024.3 1024.6 0.0
31/09:00pm 4.3 2.7 2.2 86 0.9 CALM 0 0 0 0 1024.2 1024.5 0.0
31/08:30pm 4.8 3.1 1.7 80 1.3 CALM 0 0 0 0 1024.1 1024.4 0.0
31/08:00pm 5.3 3.6 2.0 79 1.4 CALM 0 2 0 1 1024.0 1024.3 0.0
31/07:30pm 6.2 4.2 2.2 75 1.7 WSW 2 2 1 1 1023.9 1024.2 0.0
31/07:00pm 7.7 5.2 1.4 64 2.7 W 4 4 2 2 1023.6 1023.8 0.0
31/06:30pm 8.5 6.0 1.6 62 3.0 WSW 4 6 2 3 1023.4 1023.6 0.0
31/06:00pm 10.2 7.2 1.0 53 4.0 WSW 6 7 3 4 1023.0 1023.3 0.0
31/05:30pm 11.1 8.0 0.4 47 4.6 WSW 6 9 3 5 1022.7 1023.0 0.0
31/05:00pm 13.1 9.7 -0.6 39 5.9 WSW 7 13 4 7 1022.6 1022.8 0.0
31/04:30pm 14.9 10.7 -0.7 34 6.8 WSW 11 19 6 10 1022.5 1022.7 0.0
31/04:00pm 15.6 10.9 -1.6 30 7.4 WSW 13 26 7 14 1022.4 1022.6 0.0
31/03:30pm 16.0 11.4 -0.9 31 7.4 WSW 13 20 7 11 1022.5 1022.7 0.0
31/03:00pm 16.6 12.4 -0.8 30 7.7 WSW 11 20 6 11 1022.5 1022.7 0.0
31/02:30pm 16.5 11.9 -1.0 30 7.7 WSW 13 20 7 11 1022.5 1022.7 0.0
31/02:00pm 16.7 12.6 -0.3 31 7.6 WSW 11 20 6 11 1022.6 1022.8 0.0
31/01:30pm 16.1 10.8 -0.7 31 7.4 WSW 17 24 9 13 1022.7 1023.0 0.0
31/01:00pm 16.5 12.2 0.7 34 7.2 SW 13 22 7 12 1022.9 1023.2 0.0
31/12:30pm 15.6 10.5 0.5 36 6.8 WSW 17 26 9 14 1023.1 1023.4 0.0
31/12:00pm 15.3 9.7 0.0 35 6.8 WSW 19 32 10 17 1023.5 1023.7 0.0
31/11:30am 14.8 9.5 -0.5 35 6.7 SW 17 28 9 15 1023.9 1024.2 0.0
31/11:00am 14.4 8.9 0.8 39 6.1 WSW 19 28 10 15 1024.3 1024.6 0.0
31/10:30am 14.0 8.9 0.8 40 5.9 WSW 17 32 9 17 1024.7 1025.0 0.0
31/10:00am 13.3 8.2 0.6 42 5.6 WSW 17 26 9 14 1024.8 1025.1 0.0
31/09:30am 11.9 8.0 3.2 55 4.0 SW 13 20 7 11 1025.0 1025.3 0.0
31/09:00am 9.5 6.8 3.6 66 2.7 SW 7 9 4 5 1025.0 1025.3 0.2
31/08:30am 6.6 4.0 3.0 78 1.6 SW 6 9 3 5 1024.9 1025.2 0.2
31/08:00am 3.5 1.1 2.3 92 0.5 SW 4 6 2 3 1024.7 1025.0 0.0
31/07:30am 1.6 -1.3 1.4 99 0.1 SSW 6 6 3 3 1024.7 1025.0 0.0
31/07:00am 0.6 -1.4 -0.2 94 0.3 CALM 0 0 0 0 1024.3 1024.6 0.0
31/06:30am 0.3 - - - - CALM 0 0 0 0 1024.0 1024.3 0.0
31/06:00am 0.7 -1.6 0.2 96 0.2 SSW 2 2 1 1 1023.6 1023.8 0.0
31/05:30am 1.4 -1.6 1.1 98 0.1 WSW 6 7 3 4 1023.0 1023.3 0.0
31/05:00am 2.1 -0.7 1.9 99 0.1 SW 6 7 3 4 1023.0 1023.3 0.0
31/04:30am 1.0 -0.9 0.7 98 0.1 CALM 0 0 0 0 1022.7 1023.0 0.0
31/04:00am 1.6 -0.2 1.1 96 0.2 CALM 0 0 0 0 1022.8 1023.1 0.0
31/03:30am 2.1 0.3 1.4 95 0.3 CALM 0 0 0 0 1022.9 1023.2 0.0
31/03:00am 1.9 0.1 1.4 96 0.2 CALM 0 2 0 1 1023.2 1023.5 0.0
31/02:30am 1.1 -0.8 0.8 98 0.1 CALM 0 2 0 1 1023.9 1024.2 0.0
31/02:00am 3.1 1.1 2.1 93 0.4 WNW 2 6 1 3 1024.2 1024.5 0.0
31/01:30am 0.9 -1.0 0.6 98 0.1 CALM 0 0 0 0 1024.7 1025.0 0.0
31/01:00am 1.1 -1.1 0.8 98 0.1 SSW 2 6 1 3 1024.9 1025.2 0.0
31/12:30am 2.0 0.3 2.0 100 0.0 CALM 0 4 0 2 1024.8 1025.1 0.0
31/12:00am 1.9 -0.2 1.7 99 0.1 W 2 6 1 3 1024.6 1024.8 0.0
 
Date/Time
EST
Temp
°C
App
Temp
°C
Dew
Point
Rel
Hum
%
Delta-T
°C
Wind Press
QNH
hPa
Press
MSL
hPa
Rain
since 9 am
mm
Dir
 
Spd
km/h
Gust
km/h
Spd
kts
Gust
kts
30/11:30pm 1.7 -0.1 1.5 99 0.1 CALM 0 0 0 0 1024.7 1025.0 0.0
30/11:00pm 2.2 0.5 1.7 96 0.2 CALM 0 0 0 0 1025.1 1025.4 0.0
30/10:30pm 2.3 0.2 1.8 96 0.2 N 2 4 1 2 1025.4 1025.7 0.0
30/10:00pm 2.6 0.1 1.6 93 0.4 N 4 13 2 7 1025.7 1026.1 0.0
30/09:30pm 2.8 1.2 2.3 96 0.2 CALM 0 0 0 0 1025.6 1026.0 0.0
30/09:00pm 3.3 1.7 2.6 95 0.3 CALM 0 0 0 0 1025.6 1026.0 0.0
30/08:30pm 3.9 2.4 3.2 95 0.3 CALM 0 0 0 0 1025.4 1025.7 0.0
30/08:00pm 3.9 2.4 3.2 95 0.3 CALM 0 0 0 0 1025.4 1025.7 0.0
30/07:30pm 5.3 4.0 4.2 93 0.5 CALM 0 0 0 0 1025.5 1025.8 0.0
30/07:00pm 5.8 4.5 4.2 89 0.7 CALM 0 0 0 0 1025.7 1026.1 0.0
30/06:30pm 7.0 5.8 4.8 86 1.0 CALM 0 0 0 0 1025.5 1025.8 0.0
30/06:00pm 8.4 6.5 5.0 79 1.6 W 4 4 2 2 1025.3 1025.6 0.0
30/05:30pm 10.7 9.3 5.5 70 2.5 W 2 2 1 1 1025.0 1025.3 0.0
30/05:00pm 13.3 10.8 4.0 53 4.4 W 6 7 3 4 1025.3 1025.6 0.0
30/04:30pm 14.9 12.2 3.6 46 5.4 W 7 13 4 7 1025.1 1025.4 0.0
30/04:00pm 15.9 13.2 3.9 44 5.8 W 7 15 4 8 1025.0 1025.3 0.0
30/03:30pm 15.5 13.6 4.7 48 5.3 WNW 4 9 2 5 1025.0 1025.3 0.0
30/03:00pm 16.4 13.9 3.8 43 6.1 NW 6 9 3 5 1025.0 1025.3 0.0
30/02:30pm 16.0 13.0 2.3 39 6.4 WNW 7 15 4 8 1025.1 1025.4 0.0
30/02:00pm 15.6 13.1 4.0 46 5.6 NW 6 11 3 6 1025.4 1025.7 0.0
30/01:30pm 16.0 13.5 4.0 44 5.8 NNW 6 13 3 7 1026.1 1026.4 0.0
30/01:00pm 15.7 12.7 3.9 45 5.7 W 9 19 5 10 1026.3 1026.6 0.0
30/12:30pm 14.7 12.2 3.8 48 5.2 NW 6 9 3 5 1026.8 1027.2 0.0
30/12:00pm 15.8 13.5 5.8 51 5.0 N 7 15 4 8 1027.3 1027.6 0.0
30/11:30am 14.4 12.4 6.2 58 4.1 NNE 6 11 3 6 1028.0 1028.4 0.0
30/11:00am 13.9 12.1 7.0 63 3.5 NE 6 7 3 4 1028.6 1028.9 0.0
30/10:30am 12.1 10.2 6.9 70 2.6 ENE 6 7 3 4 1029.0 1029.4 0.0

Other Formats:

Comma delimited format used in spreadsheet applications
http://www.bom.gov.au/fwo/IDQ60801/IDQ60801.94553.axf

JavaScript Object Notation format (JSON) in row-major order
http://www.bom.gov.au/fwo/IDQ60801/IDQ60801.94553.json